createdAt,value
2018-06-22T00:02:14.696Z,13.00
2018-06-22T00:04:43.048Z,12.98
2018-06-22T00:07:11.400Z,12.90
2018-06-22T00:09:39.733Z,12.95
2018-06-22T00:12:08.186Z,12.90
2018-06-22T00:14:36.568Z,12.94
2018-06-22T00:17:04.939Z,12.90
2018-06-22T00:19:33.292Z,12.88
2018-06-22T00:22:01.616Z,12.92
2018-06-22T00:24:29.969Z,12.88
2018-06-22T00:26:58.289Z,12.87
2018-06-22T00:29:26.633Z,12.87
2018-06-22T00:31:55.436Z,12.86
2018-06-22T00:34:23.771Z,12.94
2018-06-22T00:36:52.152Z,12.95
2018-06-22T00:39:20.475Z,12.90
2018-06-22T00:41:49.058Z,12.84
2018-06-22T00:44:17.386Z,12.87
2018-06-22T00:46:45.715Z,12.74
2018-06-22T00:49:14.074Z,12.75
2018-06-22T00:51:42.387Z,12.80
2018-06-22T00:54:16.059Z,12.69
2018-06-22T00:56:44.541Z,12.64
2018-06-22T00:59:13.239Z,12.65
2018-06-22T01:01:41.602Z,12.70
2018-06-22T01:04:10.935Z,12.68
2018-06-22T01:06:39.275Z,12.72
2018-06-22T01:09:09.437Z,12.71
2018-06-22T01:11:37.817Z,12.58
2018-06-22T01:14:06.397Z,12.68
2018-06-22T01:16:34.769Z,12.68
2018-06-22T01:19:03.126Z,12.62
2018-06-22T01:21:31.464Z,12.60
2018-06-22T01:23:59.850Z,12.55
2018-06-22T01:26:28.225Z,12.54
2018-06-22T01:30:00.575Z,12.47
2018-06-22T01:32:28.916Z,12.37
2018-06-22T01:34:57.232Z,12.38
2018-06-22T01:37:26.191Z,12.39
2018-06-22T01:39:54.698Z,12.37
2018-06-22T01:42:23.049Z,12.32
2018-06-22T01:44:51.357Z,12.29
2018-06-22T01:47:19.700Z,12.29
2018-06-22T01:49:48.016Z,12.28
2018-06-22T01:52:16.375Z,12.27
2018-06-22T01:54:44.736Z,12.27
2018-06-22T01:57:13.048Z,12.25
2018-06-22T01:59:41.394Z,12.27
2018-06-22T02:02:09.776Z,12.24
2018-06-22T02:04:38.115Z,12.14
2018-06-22T02:07:06.486Z,12.21
2018-06-22T02:09:34.839Z,12.08
2018-06-22T02:12:03.193Z,12.14
2018-06-22T02:14:31.532Z,12.09
2018-06-22T02:16:59.874Z,12.12
2018-06-22T02:19:28.221Z,12.15
2018-06-22T02:21:56.548Z,12.20
2018-06-22T02:24:24.913Z,12.14
2018-06-22T02:26:53.256Z,12.10
2018-06-22T02:29:21.601Z,12.16
2018-06-22T02:31:49.944Z,12.19
2018-06-22T02:34:18.299Z,12.22
2018-06-22T02:36:46.658Z,12.17
2018-06-22T02:39:14.983Z,12.19
2018-06-22T02:41:43.317Z,12.23
2018-06-22T02:44:11.668Z,12.24
2018-06-22T02:46:39.998Z,12.15
2018-06-22T02:49:08.361Z,12.18
2018-06-22T02:51:36.795Z,12.25
2018-06-22T02:54:05.183Z,12.25
2018-06-22T02:56:33.532Z,12.25
2018-06-22T02:59:01.860Z,12.18
2018-06-22T03:01:30.225Z,12.25
2018-06-22T03:03:58.569Z,12.32
2018-06-22T03:06:26.891Z,12.32
2018-06-22T03:08:55.220Z,12.25
2018-06-22T03:11:23.568Z,12.31
2018-06-22T03:13:51.894Z,12.30
2018-06-22T03:16:20.229Z,12.36
2018-06-22T03:18:48.569Z,12.36
2018-06-22T03:21:16.915Z,12.32
2018-06-22T03:23:45.241Z,12.37
2018-06-22T03:26:13.690Z,12.37
2018-06-22T03:28:42.032Z,12.41
2018-06-22T03:31:10.347Z,12.39
2018-06-22T03:33:39.140Z,12.42
2018-06-22T03:36:07.567Z,12.36
2018-06-22T03:38:35.902Z,12.39
2018-06-22T03:41:04.252Z,12.34
2018-06-22T03:43:32.601Z,12.39
2018-06-22T03:46:00.929Z,12.41
2018-06-22T03:48:29.258Z,12.41
2018-06-22T03:50:57.586Z,12.44
2018-06-22T03:53:25.940Z,12.41
2018-06-22T03:55:54.292Z,12.47
2018-06-22T03:58:22.645Z,12.49
2018-06-22T04:00:50.977Z,12.46
2018-06-22T04:03:19.295Z,12.56
2018-06-22T04:05:47.644Z,12.55
2018-06-22T04:08:16.022Z,12.56
2018-06-22T04:10:44.361Z,12.60
2018-06-22T04:13:12.711Z,12.56
2018-06-22T04:15:41.073Z,12.58
2018-06-22T04:18:09.437Z,12.63
2018-06-22T04:20:37.808Z,12.58
2018-06-22T04:23:06.128Z,12.65
2018-06-22T04:25:34.459Z,12.67
2018-06-22T04:28:02.786Z,12.67
2018-06-22T04:30:31.115Z,12.69
2018-06-22T04:32:59.424Z,12.71
2018-06-22T04:35:27.770Z,12.72
2018-06-22T04:37:56.104Z,12.77
2018-06-22T04:40:24.446Z,12.82
2018-06-22T04:42:53.603Z,12.84
2018-06-22T04:45:21.930Z,12.81
2018-06-22T04:47:50.255Z,12.81
2018-06-22T04:50:18.604Z,12.79
2018-06-22T04:52:47.479Z,12.81
2018-06-22T04:55:17.032Z,12.89
2018-06-22T04:57:45.819Z,12.89
2018-06-22T05:00:14.194Z,12.94
2018-06-22T05:02:42.500Z,13.00
2018-06-22T05:05:10.830Z,12.91
2018-06-22T05:07:39.202Z,12.96
2018-06-22T05:10:07.568Z,13.03
2018-06-22T05:12:35.923Z,13.04
2018-06-22T05:15:04.266Z,13.09
2018-06-22T05:17:32.863Z,13.07
2018-06-22T05:20:01.184Z,13.06
2018-06-22T05:22:29.516Z,13.04
2018-06-22T05:24:57.840Z,13.06
2018-06-22T05:27:26.190Z,13.07
2018-06-22T05:29:54.593Z,13.16
2018-06-22T05:32:22.919Z,13.18
2018-06-22T05:34:51.274Z,13.26
2018-06-22T05:37:19.807Z,13.32
2018-06-22T05:39:48.159Z,13.41
2018-06-22T05:42:16.490Z,13.50
2018-06-22T05:44:44.814Z,13.54
2018-06-22T05:47:13.147Z,13.58
2018-06-22T05:49:41.523Z,13.66
2018-06-22T05:52:09.879Z,13.77
2018-06-22T05:54:38.191Z,13.73
2018-06-22T05:57:06.556Z,13.75
2018-06-22T05:59:34.912Z,13.93
2018-06-22T06:02:03.250Z,13.78
2018-06-22T06:04:31.598Z,13.90
2018-06-22T06:07:00.571Z,13.83
2018-06-22T06:09:29.584Z,13.82
2018-06-22T06:11:58.035Z,13.79
2018-06-22T06:14:26.364Z,13.84
2018-06-22T06:16:54.775Z,13.94
2018-06-22T06:19:23.107Z,13.97
2018-06-22T06:21:51.437Z,13.93
2018-06-22T06:24:19.759Z,13.94
2018-06-22T06:26:48.086Z,14.07
2018-06-22T06:29:16.414Z,14.12
2018-06-22T06:31:44.763Z,14.15
2018-06-22T06:34:13.110Z,14.27
2018-06-22T06:36:41.440Z,14.36
2018-06-22T06:39:09.778Z,14.38
2018-06-22T06:41:38.124Z,14.32
2018-06-22T06:44:06.482Z,14.28
2018-06-22T06:46:34.871Z,14.38
2018-06-22T06:49:03.233Z,14.31
2018-06-22T06:51:31.563Z,14.23
2018-06-22T06:54:00.076Z,14.22
2018-06-22T06:56:28.580Z,14.37
2018-06-22T06:58:56.927Z,14.43
2018-06-22T07:01:25.239Z,14.37
2018-06-22T07:03:53.602Z,14.51
2018-06-22T07:06:21.987Z,14.58
2018-06-22T07:08:50.433Z,14.66
2018-06-22T07:11:18.788Z,14.68
2018-06-22T07:13:47.128Z,14.64
2018-06-22T07:16:15.466Z,14.67
2018-06-22T07:18:43.815Z,14.67
2018-06-22T07:21:12.151Z,14.71
2018-06-22T07:23:40.473Z,14.70
2018-06-22T07:26:08.814Z,14.75
2018-06-22T07:28:37.174Z,14.71
2018-06-22T07:31:05.552Z,14.85
2018-06-22T07:33:33.896Z,14.95
2018-06-22T07:36:02.232Z,15.03
2018-06-22T07:38:30.603Z,15.09
2018-06-22T07:40:58.980Z,15.15
2018-06-22T07:43:27.341Z,15.18
2018-06-22T07:45:55.679Z,15.11
2018-06-22T07:48:24.028Z,15.05
2018-06-22T07:50:52.556Z,15.11
2018-06-22T07:53:20.900Z,15.02
2018-06-22T07:55:49.328Z,14.93
2018-06-22T07:58:17.644Z,14.90
2018-06-22T08:00:46.097Z,15.04
2018-06-22T08:03:15.372Z,14.96
2018-06-22T08:05:44.845Z,15.01
2018-06-22T08:08:13.255Z,14.88
2018-06-22T08:10:41.584Z,14.91
2018-06-22T08:13:09.939Z,14.87
2018-06-22T08:15:38.242Z,14.88
2018-06-22T08:18:06.630Z,14.88
2018-06-22T08:20:34.973Z,15.02
2018-06-22T08:23:03.279Z,15.03
2018-06-22T08:25:31.600Z,14.98
2018-06-22T08:27:59.932Z,14.94
2018-06-22T08:30:28.310Z,15.11
2018-06-22T08:32:57.588Z,15.03
2018-06-22T08:35:26.097Z,15.05
2018-06-22T08:37:54.422Z,14.97
2018-06-22T08:40:22.747Z,14.99
2018-06-22T08:42:51.059Z,15.13
2018-06-22T08:45:19.408Z,15.17
2018-06-22T08:47:47.720Z,15.21
2018-06-22T08:50:16.059Z,15.21
2018-06-22T08:52:44.412Z,15.17
2018-06-22T08:55:12.713Z,15.15
2018-06-22T08:57:41.044Z,15.18
2018-06-22T09:00:09.372Z,15.18
2018-06-22T09:02:37.728Z,15.29
2018-06-22T09:05:06.076Z,15.58
2018-06-22T09:07:34.453Z,17.09
2018-06-22T09:10:02.787Z,17.99
2018-06-22T09:12:31.182Z,19.42
2018-06-22T09:14:59.516Z,20.54
2018-06-22T09:17:28.244Z,20.49
2018-06-22T09:19:56.585Z,20.87
2018-06-22T09:22:24.919Z,21.11
2018-06-22T09:24:53.268Z,20.48
2018-06-22T09:27:21.631Z,20.15
2018-06-22T09:29:49.998Z,19.26
2018-06-22T09:32:18.427Z,18.63
2018-06-22T09:34:46.962Z,18.61
2018-06-22T09:37:15.960Z,18.13
2018-06-22T09:39:44.351Z,18.13
2018-06-22T09:42:12.714Z,17.99
2018-06-22T09:44:41.331Z,17.63
2018-06-22T09:47:10.010Z,17.19
2018-06-22T09:49:38.364Z,17.40
2018-06-22T09:52:07.330Z,16.98
2018-06-22T09:54:35.705Z,16.86
2018-06-22T09:57:04.082Z,16.85
2018-06-22T09:59:32.425Z,16.62
2018-06-22T10:02:00.873Z,16.94
2018-06-22T10:04:29.631Z,16.80
2018-06-22T10:06:58.037Z,16.95
2018-06-22T10:09:26.383Z,18.03
2018-06-22T10:11:54.791Z,19.27
2018-06-22T10:14:23.234Z,20.89
2018-06-22T10:16:52.531Z,21.23
2018-06-22T10:19:21.131Z,20.84
2018-06-22T10:21:49.514Z,20.21
2018-06-22T10:24:17.922Z,20.06
2018-06-22T10:26:46.271Z,19.92
2018-06-22T10:29:14.607Z,20.12
2018-06-22T10:31:42.959Z,19.73
2018-06-22T10:34:11.309Z,19.66
2018-06-22T10:36:39.718Z,19.34
2018-06-22T10:39:11.050Z,20.03
2018-06-22T10:41:39.473Z,20.32
2018-06-22T10:44:08.358Z,20.31
2018-06-22T10:46:36.732Z,20.80
2018-06-22T10:49:05.714Z,20.87
2018-06-22T10:51:34.028Z,21.44
2018-06-22T10:54:02.434Z,21.17
2018-06-22T10:56:30.818Z,21.19
2018-06-22T10:58:59.152Z,20.94
2018-06-22T11:01:27.621Z,20.80
2018-06-22T11:03:55.986Z,20.99
2018-06-22T11:06:24.335Z,21.09
2018-06-22T11:08:52.663Z,20.71
2018-06-22T11:11:20.988Z,20.45
2018-06-22T11:13:49.330Z,20.06
2018-06-22T11:16:17.782Z,19.19
2018-06-22T11:18:46.112Z,18.62
2018-06-22T11:21:14.500Z,18.32
2018-06-22T11:23:42.844Z,18.27
2018-06-22T11:26:11.185Z,17.84
2018-06-22T11:28:39.499Z,17.78
2018-06-22T11:31:07.852Z,17.84
2018-06-22T11:33:36.201Z,17.68
2018-06-22T11:36:04.553Z,17.58
2018-06-22T11:38:33.043Z,17.40
2018-06-22T11:41:01.363Z,16.80
2018-06-22T11:43:29.716Z,16.48
2018-06-22T11:45:58.053Z,16.63
2018-06-22T11:48:26.427Z,16.40
2018-06-22T11:50:54.746Z,16.70
2018-06-22T11:53:23.054Z,16.80
2018-06-22T11:55:51.390Z,16.94
2018-06-22T11:58:19.740Z,16.95
2018-06-22T12:00:48.072Z,16.86
2018-06-22T12:03:16.394Z,16.92
2018-06-22T12:05:44.751Z,16.83
2018-06-22T12:08:13.088Z,16.89
2018-06-22T12:10:41.441Z,17.06
2018-06-22T12:13:09.781Z,16.95
2018-06-22T12:15:38.705Z,16.99
2018-06-22T12:18:07.127Z,17.12
2018-06-22T12:20:35.462Z,17.22
2018-06-22T12:23:03.814Z,17.11
2018-06-22T12:25:32.159Z,17.16
2018-06-22T12:28:00.540Z,17.19
2018-06-22T12:30:28.867Z,17.26
2018-06-22T12:32:57.235Z,17.27
2018-06-22T12:35:25.571Z,17.26
2018-06-22T12:37:53.995Z,17.06
2018-06-22T12:40:22.331Z,17.19
2018-06-22T12:42:50.707Z,17.17
2018-06-22T12:45:19.072Z,17.03
2018-06-22T12:47:47.422Z,17.14
2018-06-22T12:50:15.908Z,17.29
2018-06-22T12:52:44.260Z,17.30
2018-06-22T12:55:12.598Z,17.27
2018-06-22T12:57:41.453Z,17.44
2018-06-22T13:00:09.795Z,17.52
2018-06-22T13:02:38.157Z,17.52
2018-06-22T13:05:06.524Z,17.66
2018-06-22T13:07:34.899Z,17.65
2018-06-22T13:10:03.704Z,17.57
2018-06-22T13:12:32.078Z,17.62
2018-06-22T13:15:01.140Z,17.74
2018-06-22T13:17:30.032Z,17.79
2018-06-22T13:19:58.372Z,17.83
2018-06-22T13:22:27.076Z,17.87
2018-06-22T13:24:55.509Z,17.90
2018-06-22T13:27:23.883Z,17.92
2018-06-22T13:29:52.502Z,18.02
2018-06-22T13:32:21.063Z,17.92
2018-06-22T13:34:49.951Z,17.89
2018-06-22T13:37:18.293Z,17.77
2018-06-22T13:39:47.420Z,17.75
2018-06-22T13:42:16.000Z,17.85
2018-06-22T13:44:44.385Z,17.86
2018-06-22T13:47:13.107Z,17.92
2018-06-22T13:49:41.452Z,17.91
2018-06-22T13:52:10.029Z,17.97
2018-06-22T13:54:39.020Z,17.98
2018-06-22T13:57:08.561Z,18.07
2018-06-22T13:59:37.478Z,18.09
2018-06-22T14:02:06.318Z,18.05
2018-06-22T14:04:40.670Z,18.07
2018-06-22T14:07:09.047Z,18.16
2018-06-22T14:09:37.530Z,18.12
2018-06-22T14:12:06.774Z,18.19
2018-06-22T14:14:36.201Z,18.16
2018-06-22T14:17:05.031Z,18.19
2018-06-22T14:19:33.498Z,18.17
2018-06-22T14:22:01.877Z,18.14
2018-06-22T14:24:30.227Z,18.02
2018-06-22T14:26:59.157Z,18.03
2018-06-22T14:29:27.894Z,17.95
2018-06-22T14:31:56.650Z,18.03
2018-06-22T14:34:25.718Z,17.98
2018-06-22T14:36:54.067Z,17.98
2018-06-22T14:39:22.417Z,18.03
2018-06-22T14:41:50.792Z,17.97
2018-06-22T14:44:19.984Z,18.02
2018-06-22T14:46:48.433Z,18.10
2018-06-22T14:49:16.838Z,18.16
2018-06-22T14:51:45.198Z,18.17
2018-06-22T14:54:18.878Z,18.19
2018-06-22T14:56:52.639Z,18.27
2018-06-22T14:59:26.237Z,18.32
2018-06-22T15:01:59.872Z,18.38
2018-06-22T15:04:33.719Z,18.37
2018-06-22T15:07:07.363Z,18.38
2018-06-22T15:09:35.723Z,18.36
2018-06-22T15:12:04.112Z,18.35
2018-06-22T15:14:32.500Z,18.28
2018-06-22T15:17:00.930Z,18.30
2018-06-22T15:19:30.195Z,18.31
2018-06-22T15:21:59.095Z,18.36
2018-06-22T15:24:27.440Z,18.35
2018-06-22T15:26:55.787Z,18.41
2018-06-22T15:29:24.136Z,18.41
2018-06-22T15:31:52.488Z,18.37
2018-06-22T15:34:26.268Z,18.38
2018-06-22T15:37:00.515Z,18.40
2018-06-22T15:39:35.253Z,18.46
2018-06-22T15:42:09.141Z,18.54
2018-06-22T15:44:42.896Z,18.61
2018-06-22T15:48:17.987Z,18.68
2018-06-22T15:50:51.744Z,18.78
2018-06-22T15:53:25.453Z,18.81
2018-06-22T15:55:57.991Z,18.81
2018-06-22T15:58:26.361Z,18.78
2018-06-22T16:00:54.696Z,18.80
2018-06-22T16:03:28.414Z,18.78
2018-06-22T16:05:56.732Z,18.78
2018-06-22T16:08:25.124Z,18.74
2018-06-22T16:10:53.523Z,18.75
2018-06-22T16:13:22.424Z,18.70
2018-06-22T16:15:56.338Z,18.65
2018-06-22T16:18:31.193Z,18.67
2018-06-22T16:21:04.898Z,18.64
2018-06-22T16:23:39.228Z,18.65
2018-06-22T16:26:12.966Z,18.64
2018-06-22T16:28:41.990Z,18.69
2018-06-22T16:31:10.318Z,18.67
2018-06-22T16:33:42.829Z,18.62
2018-06-22T16:36:11.378Z,18.55
2018-06-22T16:38:39.728Z,18.52
2018-06-22T16:41:08.291Z,18.50
2018-06-22T16:43:36.620Z,18.46
2018-06-22T16:46:05.233Z,18.44
2018-06-22T16:48:33.529Z,18.44
2018-06-22T16:51:01.861Z,18.39
2018-06-22T16:53:30.499Z,18.39
2018-06-22T16:55:59.395Z,18.38
2018-06-22T16:58:33.055Z,18.35
2018-06-22T17:01:01.404Z,18.32
2018-06-22T17:03:29.900Z,18.28
2018-06-22T17:05:58.402Z,18.23
2018-06-22T17:08:32.155Z,18.25
2018-06-22T17:11:06.044Z,18.24
2018-06-22T17:13:39.799Z,18.24
2018-06-22T17:16:13.451Z,18.22
2018-06-22T17:18:47.156Z,18.21
2018-06-22T17:21:15.531Z,18.21
2018-06-22T17:23:43.842Z,18.20
2018-06-22T17:26:12.187Z,18.19
2018-06-22T17:28:40.518Z,18.23
2018-06-22T17:31:09.283Z,18.24
2018-06-22T17:33:38.048Z,18.23
2018-06-22T17:36:06.912Z,18.22
2018-06-22T17:38:35.246Z,18.22
2018-06-22T17:41:03.618Z,18.21
2018-06-22T17:43:31.967Z,18.20
2018-06-22T17:46:00.326Z,18.21
2018-06-22T17:48:28.734Z,18.21
2018-06-22T17:50:57.270Z,18.23
2018-06-22T17:53:25.616Z,18.21
2018-06-22T17:55:53.959Z,18.21
2018-06-22T17:58:22.433Z,18.17
2018-06-22T18:01:55.980Z,18.15
2018-06-22T18:04:29.649Z,18.09
2018-06-22T18:07:03.312Z,18.01
2018-06-22T18:09:37.046Z,17.99
2018-06-22T18:12:10.948Z,17.91
2018-06-22T18:14:39.679Z,17.85
2018-06-22T18:17:08.079Z,17.81
2018-06-22T18:19:36.400Z,17.79
2018-06-22T18:22:04.779Z,17.76
2018-06-22T18:24:33.127Z,17.76
2018-06-22T18:27:01.765Z,17.66
2018-06-22T18:29:30.091Z,17.58
2018-06-22T18:31:58.426Z,17.57
2018-06-22T18:34:26.748Z,17.53
2018-06-22T18:36:56.524Z,17.49
2018-06-22T18:39:25.013Z,17.49
2018-06-22T18:41:53.661Z,17.44
2018-06-22T18:44:22.005Z,17.41
2018-06-22T18:46:50.430Z,17.36
2018-06-22T18:49:18.760Z,17.36
2018-06-22T18:51:47.840Z,17.33
2018-06-22T18:54:21.505Z,17.30
2018-06-22T18:56:55.192Z,17.25
2018-06-22T18:59:28.732Z,17.25
2018-06-22T19:02:02.552Z,17.23
2018-06-22T19:04:30.932Z,17.14
2018-06-22T19:06:59.490Z,17.13
2018-06-22T19:09:27.839Z,17.08
2018-06-22T19:11:56.278Z,16.97
2018-06-22T19:14:24.662Z,16.92
2018-06-22T19:16:53.039Z,16.87
2018-06-22T19:19:21.388Z,16.81
2018-06-22T19:21:49.782Z,16.76
2018-06-22T19:24:18.147Z,16.74
2018-06-22T19:26:46.528Z,16.67
2018-06-22T19:29:14.918Z,16.63
2018-06-22T19:31:43.284Z,16.60
2018-06-22T19:34:11.737Z,16.53
2018-06-22T19:36:40.260Z,16.51
2018-06-22T19:39:09.887Z,16.47
2018-06-22T19:41:38.271Z,16.45
2018-06-22T19:44:11.814Z,16.45
2018-06-22T19:46:45.691Z,16.40
2018-06-22T19:49:19.391Z,16.30
2018-06-22T19:51:53.061Z,16.29
2018-06-22T19:54:21.533Z,16.25
2018-06-22T19:56:49.946Z,16.23
2018-06-22T19:59:18.394Z,16.20
2018-06-22T20:01:46.743Z,16.19
2018-06-22T20:04:15.766Z,16.07
2018-06-22T20:06:44.460Z,16.06
2018-06-22T20:09:12.838Z,16.07
2018-06-22T20:11:41.181Z,15.97
2018-06-22T20:14:09.608Z,15.98
2018-06-22T20:16:37.967Z,15.96
2018-06-22T20:19:06.319Z,15.92
2018-06-22T20:21:34.726Z,15.90
2018-06-22T20:24:03.213Z,15.84
2018-06-22T20:26:31.587Z,15.83
2018-06-22T20:29:00.066Z,15.79
2018-06-22T20:31:33.804Z,15.77
2018-06-22T20:34:07.651Z,15.75
2018-06-22T20:36:41.460Z,15.74
2018-06-22T20:39:15.459Z,15.69
2018-06-22T20:41:49.202Z,15.67
2018-06-22T20:44:23.011Z,15.66
2018-06-22T20:48:00.650Z,15.66
2018-06-22T20:50:33.323Z,15.65
2018-06-22T20:53:03.122Z,15.58
2018-06-22T20:55:32.304Z,15.59
2018-06-22T20:58:00.722Z,15.57
2018-06-22T21:00:29.219Z,15.55
2018-06-22T21:02:58.286Z,15.53
2018-06-22T21:05:26.664Z,15.49
2018-06-22T21:07:55.123Z,15.46
2018-06-22T21:10:24.127Z,15.42
2018-06-22T21:12:52.565Z,15.38
2018-06-22T21:15:21.291Z,15.36
2018-06-22T21:17:49.987Z,15.34
2018-06-22T21:20:18.349Z,15.39
2018-06-22T21:22:46.877Z,15.40
2018-06-22T21:25:15.143Z,15.36
2018-06-22T21:27:48.931Z,15.36
2018-06-22T21:30:22.735Z,15.35
2018-06-22T21:32:57.005Z,15.31
2018-06-22T21:35:31.129Z,15.33
2018-06-22T21:38:04.805Z,15.37
2018-06-22T21:40:33.318Z,15.33
2018-06-22T21:43:01.739Z,15.39
2018-06-22T21:45:30.136Z,15.34
2018-06-22T21:47:58.508Z,15.39
2018-06-22T21:50:27.076Z,15.36
2018-06-22T21:52:55.692Z,15.34
2018-06-22T21:55:24.120Z,15.33
2018-06-22T21:57:52.554Z,15.32
2018-06-22T22:00:31.366Z,15.31
2018-06-22T22:03:00.663Z,15.32
2018-06-22T22:05:29.736Z,15.33
2018-06-22T22:07:58.141Z,15.32
2018-06-22T22:10:31.879Z,15.32
2018-06-22T22:13:00.428Z,15.26
2018-06-22T22:15:29.317Z,15.26
2018-06-22T22:17:57.659Z,15.24
2018-06-22T22:20:26.014Z,15.16
2018-06-22T22:22:54.490Z,15.19
2018-06-22T22:25:22.848Z,15.15
2018-06-22T22:27:51.186Z,15.13
2018-06-22T22:30:19.501Z,15.12
2018-06-22T22:32:47.832Z,15.12
2018-06-22T22:35:16.178Z,15.02
2018-06-22T22:37:44.530Z,15.05
2018-06-22T22:40:12.854Z,15.10
2018-06-22T22:42:41.182Z,15.08
2018-06-22T22:45:10.212Z,15.00
2018-06-22T22:47:38.625Z,14.98
2018-06-22T22:50:06.933Z,15.07
2018-06-22T22:52:35.363Z,15.02
2018-06-22T22:55:03.691Z,14.99
2018-06-22T22:57:32.072Z,14.98
2018-06-22T23:00:00.457Z,14.99
2018-06-22T23:02:28.865Z,15.03
2018-06-22T23:04:57.218Z,14.99
2018-06-22T23:07:25.585Z,14.95
2018-06-22T23:09:53.968Z,14.93
2018-06-22T23:12:22.355Z,14.90
2018-06-22T23:14:50.690Z,14.78
2018-06-22T23:17:19.072Z,14.79
2018-06-22T23:19:47.393Z,14.79
2018-06-22T23:22:15.792Z,14.65
2018-06-22T23:24:44.171Z,14.68
2018-06-22T23:27:12.552Z,14.59
2018-06-22T23:29:40.953Z,14.55
2018-06-22T23:32:09.304Z,14.52
2018-06-22T23:34:37.623Z,14.42
2018-06-22T23:37:05.963Z,14.44
2018-06-22T23:39:34.313Z,14.38
2018-06-22T23:42:02.664Z,14.37
2018-06-22T23:44:31.034Z,14.37
2018-06-22T23:46:59.399Z,14.36
2018-06-22T23:49:27.797Z,14.33
2018-06-22T23:51:58.161Z,14.30
2018-06-22T23:54:26.500Z,14.32
2018-06-22T23:56:54.849Z,14.30
2018-06-22T23:59:23.198Z,14.29
